sensor_id;sensor_type;location;lat;lon;timestamp;P1;durP1;ratioP1;P2;durP2;ratioP2
2838;SDS011;1427;48.510;9.060;2023-05-18T00:00:16;47.93;;;2.13;;
2838;SDS011;1427;48.510;9.060;2023-05-18T00:02:44;45.33;;;1.40;;
2838;SDS011;1427;48.510;9.060;2023-05-18T00:05:13;45.37;;;1.80;;
2838;SDS011;1427;48.510;9.060;2023-05-18T00:07:43;45.40;;;1.60;;
2838;SDS011;1427;48.510;9.060;2023-05-18T00:10:11;46.40;;;2.70;;
2838;SDS011;1427;48.510;9.060;2023-05-18T00:12:41;46.93;;;2.70;;
2838;SDS011;1427;48.510;9.060;2023-05-18T00:15:09;45.90;;;2.00;;
2838;SDS011;1427;48.510;9.060;2023-05-18T00:17:37;48.30;;;2.40;;
2838;SDS011;1427;48.510;9.060;2023-05-18T00:20:06;45.37;;;1.70;;
2838;SDS011;1427;48.510;9.060;2023-05-18T00:22:35;45.40;;;1.83;;
2838;SDS011;1427;48.510;9.060;2023-05-18T00:25:04;45.27;;;1.47;;
2838;SDS011;1427;48.510;9.060;2023-05-18T00:27:32;46.03;;;1.90;;
2838;SDS011;1427;48.510;9.060;2023-05-18T00:30:02;45.37;;;1.57;;
2838;SDS011;1427;48.510;9.060;2023-05-18T00:32:31;45.83;;;2.07;;
2838;SDS011;1427;48.510;9.060;2023-05-18T00:34:59;45.57;;;1.70;;
2838;SDS011;1427;48.510;9.060;2023-05-18T00:37:28;45.97;;;1.70;;
2838;SDS011;1427;48.510;9.060;2023-05-18T00:39:56;45.10;;;1.70;;
2838;SDS011;1427;48.510;9.060;2023-05-18T00:42:24;45.20;;;1.80;;
2838;SDS011;1427;48.510;9.060;2023-05-18T00:44:52;45.67;;;2.33;;
2838;SDS011;1427;48.510;9.060;2023-05-18T00:47:21;45.67;;;2.00;;
2838;SDS011;1427;48.510;9.060;2023-05-18T00:49:50;45.70;;;1.70;;
2838;SDS011;1427;48.510;9.060;2023-05-18T00:52:18;45.27;;;1.50;;
2838;SDS011;1427;48.510;9.060;2023-05-18T00:54:47;45.50;;;2.00;;
2838;SDS011;1427;48.510;9.060;2023-05-18T00:57:16;45.20;;;1.70;;
2838;SDS011;1427;48.510;9.060;2023-05-18T00:59:45;48.37;;;2.27;;
2838;SDS011;1427;48.510;9.060;2023-05-18T01:02:14;45.23;;;1.77;;
2838;SDS011;1427;48.510;9.060;2023-05-18T01:04:43;45.27;;;1.97;;
2838;SDS011;1427;48.510;9.060;2023-05-18T01:07:12;47.30;;;1.80;;
2838;SDS011;1427;48.510;9.060;2023-05-18T01:09:41;46.50;;;2.27;;
2838;SDS011;1427;48.510;9.060;2023-05-18T01:12:11;47.90;;;2.50;;
2838;SDS011;1427;48.510;9.060;2023-05-18T01:14:51;45.67;;;2.20;;
2838;SDS011;1427;48.510;9.060;2023-05-18T01:17:28;45.17;;;1.40;;
2838;SDS011;1427;48.510;9.060;2023-05-18T01:20:10;47.07;;;1.67;;
2838;SDS011;1427;48.510;9.060;2023-05-18T01:22:48;45.60;;;1.87;;
2838;SDS011;1427;48.510;9.060;2023-05-18T01:25:30;45.50;;;2.23;;
2838;SDS011;1427;48.510;9.060;2023-05-18T01:28:04;45.50;;;1.73;;
2838;SDS011;1427;48.510;9.060;2023-05-18T01:30:35;45.43;;;1.60;;
2838;SDS011;1427;48.510;9.060;2023-05-18T01:33:07;44.50;;;1.40;;
2838;SDS011;1427;48.510;9.060;2023-05-18T01:35:36;45.00;;;1.30;;
2838;SDS011;1427;48.510;9.060;2023-05-18T01:38:06;45.43;;;1.67;;
2838;SDS011;1427;48.510;9.060;2023-05-18T01:40:36;45.97;;;1.80;;
2838;SDS011;1427;48.510;9.060;2023-05-18T01:43:11;45.10;;;1.60;;
2838;SDS011;1427;48.510;9.060;2023-05-18T01:45:44;44.80;;;1.40;;
2838;SDS011;1427;48.510;9.060;2023-05-18T01:48:16;45.63;;;1.77;;
2838;SDS011;1427;48.510;9.060;2023-05-18T01:50:47;45.57;;;1.77;;
2838;SDS011;1427;48.510;9.060;2023-05-18T01:53:22;46.90;;;2.40;;
2838;SDS011;1427;48.510;9.060;2023-05-18T01:55:54;45.27;;;1.37;;
2838;SDS011;1427;48.510;9.060;2023-05-18T01:58:25;45.53;;;2.10;;
2838;SDS011;1427;48.510;9.060;2023-05-18T02:00:54;45.23;;;1.93;;
2838;SDS011;1427;48.510;9.060;2023-05-18T02:03:22;45.07;;;1.60;;
2838;SDS011;1427;48.510;9.060;2023-05-18T02:05:50;47.40;;;1.97;;
2838;SDS011;1427;48.510;9.060;2023-05-18T02:08:18;44.40;;;1.40;;
2838;SDS011;1427;48.510;9.060;2023-05-18T02:10:46;45.53;;;2.30;;
2838;SDS011;1427;48.510;9.060;2023-05-18T02:13:14;45.37;;;1.50;;
2838;SDS011;1427;48.510;9.060;2023-05-18T02:15:44;45.27;;;1.60;;
2838;SDS011;1427;48.510;9.060;2023-05-18T02:18:12;45.60;;;1.80;;
2838;SDS011;1427;48.510;9.060;2023-05-18T02:20:41;45.33;;;1.70;;
2838;SDS011;1427;48.510;9.060;2023-05-18T02:23:09;45.80;;;2.33;;
2838;SDS011;1427;48.510;9.060;2023-05-18T02:25:37;45.33;;;1.60;;
2838;SDS011;1427;48.510;9.060;2023-05-18T02:28:05;45.47;;;2.17;;
2838;SDS011;1427;48.510;9.060;2023-05-18T02:30:33;45.07;;;1.50;;
2838;SDS011;1427;48.510;9.060;2023-05-18T02:33:03;45.10;;;1.70;;
2838;SDS011;1427;48.510;9.060;2023-05-18T02:35:34;45.10;;;1.57;;
2838;SDS011;1427;48.510;9.060;2023-05-18T02:38:02;45.00;;;1.63;;
2838;SDS011;1427;48.510;9.060;2023-05-18T02:40:30;45.33;;;1.43;;
2838;SDS011;1427;48.510;9.060;2023-05-18T02:42:58;44.97;;;1.70;;
2838;SDS011;1427;48.510;9.060;2023-05-18T02:45:26;45.47;;;1.50;;
2838;SDS011;1427;48.510;9.060;2023-05-18T02:47:55;45.47;;;1.60;;
2838;SDS011;1427;48.510;9.060;2023-05-18T02:50:24;45.17;;;1.60;;
2838;SDS011;1427;48.510;9.060;2023-05-18T02:52:52;45.43;;;2.10;;
2838;SDS011;1427;48.510;9.060;2023-05-18T02:55:21;45.37;;;1.60;;
2838;SDS011;1427;48.510;9.060;2023-05-18T02:57:49;45.30;;;1.90;;
2838;SDS011;1427;48.510;9.060;2023-05-18T03:00:22;45.47;;;1.77;;
2838;SDS011;1427;48.510;9.060;2023-05-18T03:02:50;45.17;;;1.77;;
2838;SDS011;1427;48.510;9.060;2023-05-18T03:05:19;45.40;;;1.70;;
2838;SDS011;1427;48.510;9.060;2023-05-18T03:07:50;45.27;;;1.83;;
2838;SDS011;1427;48.510;9.060;2023-05-18T03:10:19;45.47;;;1.67;;
2838;SDS011;1427;48.510;9.060;2023-05-18T03:12:48;45.40;;;2.23;;
2838;SDS011;1427;48.510;9.060;2023-05-18T03:15:16;46.70;;;2.60;;
2838;SDS011;1427;48.510;9.060;2023-05-18T03:17:44;45.37;;;1.63;;
2838;SDS011;1427;48.510;9.060;2023-05-18T03:20:12;45.47;;;1.60;;
2838;SDS011;1427;48.510;9.060;2023-05-18T03:22:41;45.07;;;1.80;;
2838;SDS011;1427;48.510;9.060;2023-05-18T03:25:10;45.40;;;2.27;;
2838;SDS011;1427;48.510;9.060;2023-05-18T03:27:38;45.30;;;1.63;;
2838;SDS011;1427;48.510;9.060;2023-05-18T03:30:06;45.10;;;1.63;;
2838;SDS011;1427;48.510;9.060;2023-05-18T03:32:35;45.17;;;1.60;;
2838;SDS011;1427;48.510;9.060;2023-05-18T03:35:03;45.30;;;1.70;;
2838;SDS011;1427;48.510;9.060;2023-05-18T03:37:32;45.27;;;1.50;;
2838;SDS011;1427;48.510;9.060;2023-05-18T03:40:07;45.17;;;1.60;;
2838;SDS011;1427;48.510;9.060;2023-05-18T03:42:38;45.63;;;1.53;;
2838;SDS011;1427;48.510;9.060;2023-05-18T03:45:07;45.30;;;1.53;;
2838;SDS011;1427;48.510;9.060;2023-05-18T03:47:36;45.93;;;2.40;;
2838;SDS011;1427;48.510;9.060;2023-05-18T03:50:05;45.30;;;2.30;;
2838;SDS011;1427;48.510;9.060;2023-05-18T03:52:34;46.53;;;3.20;;
2838;SDS011;1427;48.510;9.060;2023-05-18T03:55:02;46.37;;;3.40;;
2838;SDS011;1427;48.510;9.060;2023-05-18T03:57:31;45.27;;;2.90;;
2838;SDS011;1427;48.510;9.060;2023-05-18T04:00:01;46.17;;;3.97;;
2838;SDS011;1427;48.510;9.060;2023-05-18T04:02:38;46.40;;;3.80;;
2838;SDS011;1427;48.510;9.060;2023-05-18T04:05:07;46.30;;;3.13;;
2838;SDS011;1427;48.510;9.060;2023-05-18T04:07:36;46.93;;;4.30;;
2838;SDS011;1427;48.510;9.060;2023-05-18T04:10:09;45.73;;;2.97;;
2838;SDS011;1427;48.510;9.060;2023-05-18T04:12:38;47.00;;;3.97;;
2838;SDS011;1427;48.510;9.060;2023-05-18T04:15:08;46.43;;;3.63;;
2838;SDS011;1427;48.510;9.060;2023-05-18T04:17:39;46.43;;;3.33;;
2838;SDS011;1427;48.510;9.060;2023-05-18T04:20:11;46.73;;;3.57;;
2838;SDS011;1427;48.510;9.060;2023-05-18T04:22:40;46.90;;;3.33;;
2838;SDS011;1427;48.510;9.060;2023-05-18T04:25:14;47.47;;;4.20;;
2838;SDS011;1427;48.510;9.060;2023-05-18T04:27:42;46.13;;;3.40;;
2838;SDS011;1427;48.510;9.060;2023-05-18T04:30:13;46.70;;;4.03;;
2838;SDS011;1427;48.510;9.060;2023-05-18T04:32:44;47.37;;;4.17;;
2838;SDS011;1427;48.510;9.060;2023-05-18T04:35:12;46.70;;;3.83;;
2838;SDS011;1427;48.510;9.060;2023-05-18T04:37:40;46.20;;;3.10;;
2838;SDS011;1427;48.510;9.060;2023-05-18T04:40:08;46.60;;;4.40;;
2838;SDS011;1427;48.510;9.060;2023-05-18T04:42:39;46.57;;;4.20;;
2838;SDS011;1427;48.510;9.060;2023-05-18T04:45:12;48.60;;;4.27;;
2838;SDS011;1427;48.510;9.060;2023-05-18T04:47:43;46.20;;;3.53;;
2838;SDS011;1427;48.510;9.060;2023-05-18T04:50:15;46.27;;;3.40;;
2838;SDS011;1427;48.510;9.060;2023-05-18T04:52:45;49.70;;;4.73;;
2838;SDS011;1427;48.510;9.060;2023-05-18T04:55:15;46.40;;;3.57;;
2838;SDS011;1427;48.510;9.060;2023-05-18T04:57:48;49.23;;;4.83;;
2838;SDS011;1427;48.510;9.060;2023-05-18T05:00:20;46.13;;;3.43;;
2838;SDS011;1427;48.510;9.060;2023-05-18T05:02:50;46.97;;;4.03;;
2838;SDS011;1427;48.510;9.060;2023-05-18T05:05:19;46.53;;;3.80;;
2838;SDS011;1427;48.510;9.060;2023-05-18T05:07:48;48.90;;;5.60;;
2838;SDS011;1427;48.510;9.060;2023-05-18T05:10:16;46.23;;;3.53;;
2838;SDS011;1427;48.510;9.060;2023-05-18T05:12:44;46.00;;;3.40;;
2838;SDS011;1427;48.510;9.060;2023-05-18T05:15:14;46.23;;;3.43;;
2838;SDS011;1427;48.510;9.060;2023-05-18T05:17:44;46.20;;;3.37;;
2838;SDS011;1427;48.510;9.060;2023-05-18T05:20:13;46.60;;;4.30;;
2838;SDS011;1427;48.510;9.060;2023-05-18T05:22:41;46.60;;;3.60;;
2838;SDS011;1427;48.510;9.060;2023-05-18T05:25:09;48.03;;;3.80;;
2838;SDS011;1427;48.510;9.060;2023-05-18T05:27:37;47.13;;;3.83;;
2838;SDS011;1427;48.510;9.060;2023-05-18T05:30:06;46.80;;;4.23;;
2838;SDS011;1427;48.510;9.060;2023-05-18T05:32:35;47.63;;;4.77;;
2838;SDS011;1427;48.510;9.060;2023-05-18T05:35:05;47.47;;;4.70;;
2838;SDS011;1427;48.510;9.060;2023-05-18T05:37:33;48.00;;;3.50;;
2838;SDS011;1427;48.510;9.060;2023-05-18T05:40:02;46.80;;;3.57;;
2838;SDS011;1427;48.510;9.060;2023-05-18T05:42:31;46.10;;;3.40;;
2838;SDS011;1427;48.510;9.060;2023-05-18T05:45:00;47.10;;;4.03;;
2838;SDS011;1427;48.510;9.060;2023-05-18T05:47:27;46.60;;;3.73;;
2838;SDS011;1427;48.510;9.060;2023-05-18T05:49:56;50.67;;;4.80;;
2838;SDS011;1427;48.510;9.060;2023-05-18T05:52:25;46.37;;;3.37;;
2838;SDS011;1427;48.510;9.060;2023-05-18T05:54:54;48.20;;;4.43;;
2838;SDS011;1427;48.510;9.060;2023-05-18T05:57:22;46.97;;;4.53;;
2838;SDS011;1427;48.510;9.060;2023-05-18T05:59:50;48.97;;;3.70;;
2838;SDS011;1427;48.510;9.060;2023-05-18T06:02:19;46.97;;;3.80;;
2838;SDS011;1427;48.510;9.060;2023-05-18T06:04:47;47.03;;;3.60;;
2838;SDS011;1427;48.510;9.060;2023-05-18T06:07:15;48.73;;;4.03;;
2838;SDS011;1427;48.510;9.060;2023-05-18T06:09:44;53.33;;;3.87;;
2838;SDS011;1427;48.510;9.060;2023-05-18T06:12:12;47.77;;;4.43;;
2838;SDS011;1427;48.510;9.060;2023-05-18T06:14:41;47.43;;;4.10;;
2838;SDS011;1427;48.510;9.060;2023-05-18T06:17:09;49.00;;;4.57;;
2838;SDS011;1427;48.510;9.060;2023-05-18T06:19:37;46.63;;;3.63;;
2838;SDS011;1427;48.510;9.060;2023-05-18T06:22:05;47.20;;;3.53;;
2838;SDS011;1427;48.510;9.060;2023-05-18T06:24:33;47.87;;;4.03;;
2838;SDS011;1427;48.510;9.060;2023-05-18T06:27:02;48.83;;;4.40;;
2838;SDS011;1427;48.510;9.060;2023-05-18T06:29:31;50.20;;;4.80;;
2838;SDS011;1427;48.510;9.060;2023-05-18T06:31:59;47.37;;;3.97;;
2838;SDS011;1427;48.510;9.060;2023-05-18T06:34:27;51.03;;;3.60;;
2838;SDS011;1427;48.510;9.060;2023-05-18T06:36:55;51.17;;;4.50;;
2838;SDS011;1427;48.510;9.060;2023-05-18T06:39:23;47.83;;;3.33;;
2838;SDS011;1427;48.510;9.060;2023-05-18T06:41:52;48.30;;;4.63;;
2838;SDS011;1427;48.510;9.060;2023-05-18T06:44:21;47.47;;;4.10;;
2838;SDS011;1427;48.510;9.060;2023-05-18T06:46:49;48.47;;;5.17;;
2838;SDS011;1427;48.510;9.060;2023-05-18T06:49:17;48.17;;;3.80;;
2838;SDS011;1427;48.510;9.060;2023-05-18T06:51:45;48.27;;;3.57;;
2838;SDS011;1427;48.510;9.060;2023-05-18T06:54:13;48.10;;;4.30;;
2838;SDS011;1427;48.510;9.060;2023-05-18T06:56:41;51.30;;;4.70;;
2838;SDS011;1427;48.510;9.060;2023-05-18T06:59:09;47.27;;;3.70;;
2838;SDS011;1427;48.510;9.060;2023-05-18T07:01:39;50.10;;;4.00;;
2838;SDS011;1427;48.510;9.060;2023-05-18T07:04:07;48.27;;;3.97;;
2838;SDS011;1427;48.510;9.060;2023-05-18T07:06:35;47.77;;;4.23;;
2838;SDS011;1427;48.510;9.060;2023-05-18T07:09:04;46.30;;;3.20;;
2838;SDS011;1427;48.510;9.060;2023-05-18T07:11:33;51.03;;;4.80;;
2838;SDS011;1427;48.510;9.060;2023-05-18T07:14:01;48.37;;;4.03;;
2838;SDS011;1427;48.510;9.060;2023-05-18T07:16:29;47.67;;;4.17;;
2838;SDS011;1427;48.510;9.060;2023-05-18T07:18:58;48.33;;;4.13;;
2838;SDS011;1427;48.510;9.060;2023-05-18T07:21:26;48.40;;;4.90;;
2838;SDS011;1427;48.510;9.060;2023-05-18T07:23:54;49.83;;;4.20;;
2838;SDS011;1427;48.510;9.060;2023-05-18T07:26:22;47.97;;;4.30;;
2838;SDS011;1427;48.510;9.060;2023-05-18T07:28:51;49.30;;;5.43;;
2838;SDS011;1427;48.510;9.060;2023-05-18T07:31:19;47.67;;;4.57;;
2838;SDS011;1427;48.510;9.060;2023-05-18T07:33:47;51.97;;;4.80;;
2838;SDS011;1427;48.510;9.060;2023-05-18T07:36:17;47.43;;;4.00;;
2838;SDS011;1427;48.510;9.060;2023-05-18T07:38:45;48.10;;;4.60;;
2838;SDS011;1427;48.510;9.060;2023-05-18T07:41:13;53.70;;;5.17;;
2838;SDS011;1427;48.510;9.060;2023-05-18T07:43:41;51.90;;;6.20;;
2838;SDS011;1427;48.510;9.060;2023-05-18T07:46:09;48.90;;;4.83;;
2838;SDS011;1427;48.510;9.060;2023-05-18T07:48:37;50.80;;;5.67;;
2838;SDS011;1427;48.510;9.060;2023-05-18T07:51:06;49.30;;;5.30;;
2838;SDS011;1427;48.510;9.060;2023-05-18T07:53:36;49.27;;;5.67;;
2838;SDS011;1427;48.510;9.060;2023-05-18T07:56:04;51.07;;;4.80;;
2838;SDS011;1427;48.510;9.060;2023-05-18T07:58:34;50.07;;;5.40;;
2838;SDS011;1427;48.510;9.060;2023-05-18T08:01:02;49.67;;;5.20;;
2838;SDS011;1427;48.510;9.060;2023-05-18T08:03:30;51.50;;;6.20;;
2838;SDS011;1427;48.510;9.060;2023-05-18T08:05:59;49.10;;;4.97;;
2838;SDS011;1427;48.510;9.060;2023-05-18T08:08:27;50.00;;;6.07;;
2838;SDS011;1427;48.510;9.060;2023-05-18T08:10:56;52.10;;;5.10;;
2838;SDS011;1427;48.510;9.060;2023-05-18T08:13:25;53.20;;;6.80;;
2838;SDS011;1427;48.510;9.060;2023-05-18T08:15:53;53.70;;;6.50;;
2838;SDS011;1427;48.510;9.060;2023-05-18T08:18:37;54.03;;;5.03;;
2838;SDS011;1427;48.510;9.060;2023-05-18T08:21:05;50.27;;;5.30;;
2838;SDS011;1427;48.510;9.060;2023-05-18T08:23:35;53.00;;;5.23;;
2838;SDS011;1427;48.510;9.060;2023-05-18T08:26:05;51.67;;;6.60;;
2838;SDS011;1427;48.510;9.060;2023-05-18T08:28:35;51.50;;;5.60;;
2838;SDS011;1427;48.510;9.060;2023-05-18T08:31:03;52.57;;;6.53;;
2838;SDS011;1427;48.510;9.060;2023-05-18T08:33:32;50.20;;;4.93;;
2838;SDS011;1427;48.510;9.060;2023-05-18T08:36:00;51.07;;;5.27;;
2838;SDS011;1427;48.510;9.060;2023-05-18T08:38:28;50.10;;;5.37;;
2838;SDS011;1427;48.510;9.060;2023-05-18T08:40:58;57.67;;;6.60;;
2838;SDS011;1427;48.510;9.060;2023-05-18T08:43:33;49.23;;;5.23;;
2838;SDS011;1427;48.510;9.060;2023-05-18T08:46:06;49.10;;;4.80;;
2838;SDS011;1427;48.510;9.060;2023-05-18T08:48:39;48.17;;;4.20;;
2838;SDS011;1427;48.510;9.060;2023-05-18T08:51:11;53.38;;;5.40;;
2838;SDS011;1427;48.510;9.060;2023-05-18T08:53:45;53.43;;;3.97;;
2838;SDS011;1427;48.510;9.060;2023-05-18T08:56:18;51.40;;;5.20;;
2838;SDS011;1427;48.510;9.060;2023-05-18T08:58:50;50.90;;;5.43;;
2838;SDS011;1427;48.510;9.060;2023-05-18T09:01:21;50.37;;;5.07;;
2838;SDS011;1427;48.510;9.060;2023-05-18T09:03:54;50.80;;;5.10;;
2838;SDS011;1427;48.510;9.060;2023-05-18T09:06:23;52.40;;;6.43;;
2838;SDS011;1427;48.510;9.060;2023-05-18T09:08:53;51.37;;;6.77;;
2838;SDS011;1427;48.510;9.060;2023-05-18T09:11:24;52.47;;;4.43;;
2838;SDS011;1427;48.510;9.060;2023-05-18T09:13:54;49.57;;;4.97;;
2838;SDS011;1427;48.510;9.060;2023-05-18T09:16:22;51.80;;;5.67;;
2838;SDS011;1427;48.510;9.060;2023-05-18T09:18:51;52.10;;;5.13;;
2838;SDS011;1427;48.510;9.060;2023-05-18T09:21:19;52.20;;;5.40;;
2838;SDS011;1427;48.510;9.060;2023-05-18T09:23:47;51.60;;;5.47;;
2838;SDS011;1427;48.510;9.060;2023-05-18T09:26:16;50.70;;;5.17;;
2838;SDS011;1427;48.510;9.060;2023-05-18T09:28:46;50.03;;;5.47;;
2838;SDS011;1427;48.510;9.060;2023-05-18T09:31:20;60.10;;;6.17;;
2838;SDS011;1427;48.510;9.060;2023-05-18T09:33:52;53.23;;;4.80;;
2838;SDS011;1427;48.510;9.060;2023-05-18T09:36:24;48.33;;;4.47;;
2838;SDS011;1427;48.510;9.060;2023-05-18T09:38:54;51.53;;;5.23;;
2838;SDS011;1427;48.510;9.060;2023-05-18T09:41:24;47.70;;;3.90;;
2838;SDS011;1427;48.510;9.060;2023-05-18T09:43:53;55.20;;;6.73;;
2838;SDS011;1427;48.510;9.060;2023-05-18T09:46:23;57.27;;;6.00;;
2838;SDS011;1427;48.510;9.060;2023-05-18T09:48:51;56.67;;;6.90;;
2838;SDS011;1427;48.510;9.060;2023-05-18T09:51:20;51.10;;;5.00;;
2838;SDS011;1427;48.510;9.060;2023-05-18T09:53:52;49.50;;;5.03;;
2838;SDS011;1427;48.510;9.060;2023-05-18T09:56:21;49.50;;;4.53;;
2838;SDS011;1427;48.510;9.060;2023-05-18T09:58:50;49.90;;;5.27;;
2838;SDS011;1427;48.510;9.060;2023-05-18T10:01:18;48.87;;;4.00;;
2838;SDS011;1427;48.510;9.060;2023-05-18T10:03:47;49.80;;;4.80;;
2838;SDS011;1427;48.510;9.060;2023-05-18T10:06:16;51.27;;;4.70;;
2838;SDS011;1427;48.510;9.060;2023-05-18T10:08:45;49.93;;;4.80;;
2838;SDS011;1427;48.510;9.060;2023-05-18T10:11:16;48.50;;;4.40;;
2838;SDS011;1427;48.510;9.060;2023-05-18T10:13:44;48.10;;;3.93;;
2838;SDS011;1427;48.510;9.060;2023-05-18T10:16:13;48.90;;;5.20;;
2838;SDS011;1427;48.510;9.060;2023-05-18T10:18:42;49.47;;;4.50;;
2838;SDS011;1427;48.510;9.060;2023-05-18T10:21:13;47.27;;;3.80;;
2838;SDS011;1427;48.510;9.060;2023-05-18T10:23:43;50.27;;;4.97;;
2838;SDS011;1427;48.510;9.060;2023-05-18T10:26:14;48.90;;;3.90;;
2838;SDS011;1427;48.510;9.060;2023-05-18T10:28:49;47.87;;;4.33;;
2838;SDS011;1427;48.510;9.060;2023-05-18T10:31:19;48.60;;;5.07;;
2838;SDS011;1427;48.510;9.060;2023-05-18T10:33:49;51.77;;;5.10;;
2838;SDS011;1427;48.510;9.060;2023-05-18T10:36:20;55.63;;;4.80;;
2838;SDS011;1427;48.510;9.060;2023-05-18T10:38:51;49.43;;;5.17;;
2838;SDS011;1427;48.510;9.060;2023-05-18T10:41:20;56.03;;;5.60;;
2838;SDS011;1427;48.510;9.060;2023-05-18T10:43:51;49.03;;;4.43;;
2838;SDS011;1427;48.510;9.060;2023-05-18T10:46:27;49.77;;;4.43;;
2838;SDS011;1427;48.510;9.060;2023-05-18T10:48:55;48.20;;;4.33;;
2838;SDS011;1427;48.510;9.060;2023-05-18T10:51:26;47.93;;;4.00;;
2838;SDS011;1427;48.510;9.060;2023-05-18T10:53:56;49.73;;;4.10;;
2838;SDS011;1427;48.510;9.060;2023-05-18T10:56:38;53.40;;;4.40;;
2838;SDS011;1427;48.510;9.060;2023-05-18T10:59:10;49.87;;;4.80;;
2838;SDS011;1427;48.510;9.060;2023-05-18T11:01:39;49.03;;;4.23;;
2838;SDS011;1427;48.510;9.060;2023-05-18T11:04:09;49.50;;;4.70;;
2838;SDS011;1427;48.510;9.060;2023-05-18T11:06:38;52.90;;;4.70;;
2838;SDS011;1427;48.510;9.060;2023-05-18T11:09:06;48.60;;;4.30;;
2838;SDS011;1427;48.510;9.060;2023-05-18T11:11:49;48.60;;;4.50;;
2838;SDS011;1427;48.510;9.060;2023-05-18T11:14:23;52.03;;;4.50;;
2838;SDS011;1427;48.510;9.060;2023-05-18T11:16:52;49.77;;;5.10;;
2838;SDS011;1427;48.510;9.060;2023-05-18T11:19:23;48.07;;;4.57;;
2838;SDS011;1427;48.510;9.060;2023-05-18T11:21:54;47.87;;;4.17;;
2838;SDS011;1427;48.510;9.060;2023-05-18T11:24:28;48.67;;;4.67;;
2838;SDS011;1427;48.510;9.060;2023-05-18T11:26:57;47.80;;;3.93;;
2838;SDS011;1427;48.510;9.060;2023-05-18T11:29:29;49.90;;;4.47;;
2838;SDS011;1427;48.510;9.060;2023-05-18T11:32:00;52.83;;;5.63;;
2838;SDS011;1427;48.510;9.060;2023-05-18T11:34:39;49.97;;;5.60;;
2838;SDS011;1427;48.510;9.060;2023-05-18T11:37:12;55.00;;;5.10;;
2838;SDS011;1427;48.510;9.060;2023-05-18T11:39:41;50.37;;;4.37;;
2838;SDS011;1427;48.510;9.060;2023-05-18T11:42:30;49.70;;;4.73;;
2838;SDS011;1427;48.510;9.060;2023-05-18T11:45:04;50.80;;;5.00;;
2838;SDS011;1427;48.510;9.060;2023-05-18T11:47:33;50.87;;;3.50;;
2838;SDS011;1427;48.510;9.060;2023-05-18T11:50:05;48.93;;;4.13;;
2838;SDS011;1427;48.510;9.060;2023-05-18T11:52:44;50.00;;;4.73;;
2838;SDS011;1427;48.510;9.060;2023-05-18T11:55:14;49.73;;;5.00;;
2838;SDS011;1427;48.510;9.060;2023-05-18T11:57:42;50.87;;;5.97;;
2838;SDS011;1427;48.510;9.060;2023-05-18T12:00:11;47.73;;;3.67;;
2838;SDS011;1427;48.510;9.060;2023-05-18T12:02:41;48.50;;;4.37;;
2838;SDS011;1427;48.510;9.060;2023-05-18T12:05:11;48.90;;;4.30;;
2838;SDS011;1427;48.510;9.060;2023-05-18T12:07:40;48.70;;;4.70;;
2838;SDS011;1427;48.510;9.060;2023-05-18T12:10:12;48.43;;;3.80;;
2838;SDS011;1427;48.510;9.060;2023-05-18T12:12:41;48.20;;;4.67;;
2838;SDS011;1427;48.510;9.060;2023-05-18T12:15:10;53.40;;;4.80;;
2838;SDS011;1427;48.510;9.060;2023-05-18T12:17:42;54.93;;;5.97;;
2838;SDS011;1427;48.510;9.060;2023-05-18T12:20:12;48.97;;;4.33;;
2838;SDS011;1427;48.510;9.060;2023-05-18T12:22:42;49.50;;;4.60;;
2838;SDS011;1427;48.510;9.060;2023-05-18T12:25:12;48.80;;;4.33;;
2838;SDS011;1427;48.510;9.060;2023-05-18T12:27:40;49.80;;;3.77;;
2838;SDS011;1427;48.510;9.060;2023-05-18T12:30:10;50.80;;;4.30;;
2838;SDS011;1427;48.510;9.060;2023-05-18T12:32:42;47.97;;;3.80;;
2838;SDS011;1427;48.510;9.060;2023-05-18T12:35:11;54.93;;;4.40;;
2838;SDS011;1427;48.510;9.060;2023-05-18T12:37:42;51.00;;;4.77;;
2838;SDS011;1427;48.510;9.060;2023-05-18T12:40:14;48.77;;;4.00;;
2838;SDS011;1427;48.510;9.060;2023-05-18T12:42:52;53.83;;;4.43;;
2838;SDS011;1427;48.510;9.060;2023-05-18T12:45:22;48.73;;;5.00;;
2838;SDS011;1427;48.510;9.060;2023-05-18T12:47:51;47.80;;;4.20;;
2838;SDS011;1427;48.510;9.060;2023-05-18T12:50:21;49.87;;;5.20;;
2838;SDS011;1427;48.510;9.060;2023-05-18T12:52:50;50.23;;;4.87;;
2838;SDS011;1427;48.510;9.060;2023-05-18T12:55:20;48.40;;;4.30;;
2838;SDS011;1427;48.510;9.060;2023-05-18T12:57:58;47.20;;;3.53;;
2838;SDS011;1427;48.510;9.060;2023-05-18T13:00:31;47.90;;;4.13;;
2838;SDS011;1427;48.510;9.060;2023-05-18T13:03:06;53.35;;;5.47;;
2838;SDS011;1427;48.510;9.060;2023-05-18T13:05:40;46.97;;;3.60;;
2838;SDS011;1427;48.510;9.060;2023-05-18T13:08:12;49.20;;;4.93;;
2838;SDS011;1427;48.510;9.060;2023-05-18T13:10:43;47.60;;;4.27;;
2838;SDS011;1427;48.510;9.060;2023-05-18T13:13:20;57.07;;;3.50;;
2838;SDS011;1427;48.510;9.060;2023-05-18T13:15:49;48.73;;;4.30;;
2838;SDS011;1427;48.510;9.060;2023-05-18T13:18:17;49.40;;;4.60;;
2838;SDS011;1427;48.510;9.060;2023-05-18T13:20:46;48.30;;;4.57;;
2838;SDS011;1427;48.510;9.060;2023-05-18T13:23:18;47.80;;;3.90;;
2838;SDS011;1427;48.510;9.060;2023-05-18T13:25:49;49.47;;;4.00;;
2838;SDS011;1427;48.510;9.060;2023-05-18T13:28:18;50.07;;;4.67;;
2838;SDS011;1427;48.510;9.060;2023-05-18T13:30:47;47.70;;;4.40;;
2838;SDS011;1427;48.510;9.060;2023-05-18T13:33:16;48.37;;;4.30;;
2838;SDS011;1427;48.510;9.060;2023-05-18T13:35:44;52.70;;;4.90;;
2838;SDS011;1427;48.510;9.060;2023-05-18T13:38:15;49.60;;;4.17;;
2838;SDS011;1427;48.510;9.060;2023-05-18T13:40:43;49.40;;;4.60;;
2838;SDS011;1427;48.510;9.060;2023-05-18T13:43:13;47.67;;;3.90;;
2838;SDS011;1427;48.510;9.060;2023-05-18T13:45:41;47.67;;;3.20;;
2838;SDS011;1427;48.510;9.060;2023-05-18T13:48:10;47.40;;;3.80;;
2838;SDS011;1427;48.510;9.060;2023-05-18T13:50:39;48.63;;;4.37;;
2838;SDS011;1427;48.510;9.060;2023-05-18T13:53:07;48.60;;;4.30;;
2838;SDS011;1427;48.510;9.060;2023-05-18T13:55:35;51.43;;;5.47;;
2838;SDS011;1427;48.510;9.060;2023-05-18T13:58:04;51.30;;;4.70;;
2838;SDS011;1427;48.510;9.060;2023-05-18T14:00:33;51.13;;;3.90;;
2838;SDS011;1427;48.510;9.060;2023-05-18T14:03:01;47.83;;;4.20;;
2838;SDS011;1427;48.510;9.060;2023-05-18T14:05:30;48.37;;;3.90;;
2838;SDS011;1427;48.510;9.060;2023-05-18T14:07:58;49.17;;;5.20;;
2838;SDS011;1427;48.510;9.060;2023-05-18T14:10:26;47.77;;;3.90;;
2838;SDS011;1427;48.510;9.060;2023-05-18T14:12:55;49.83;;;4.83;;
2838;SDS011;1427;48.510;9.060;2023-05-18T14:15:23;50.40;;;4.73;;
2838;SDS011;1427;48.510;9.060;2023-05-18T14:17:52;47.50;;;3.67;;
2838;SDS011;1427;48.510;9.060;2023-05-18T14:20:21;50.70;;;3.90;;
2838;SDS011;1427;48.510;9.060;2023-05-18T14:22:49;48.10;;;3.90;;
2838;SDS011;1427;48.510;9.060;2023-05-18T14:25:17;47.90;;;3.57;;
2838;SDS011;1427;48.510;9.060;2023-05-18T14:27:45;48.50;;;3.70;;
2838;SDS011;1427;48.510;9.060;2023-05-18T14:30:13;47.73;;;3.97;;
2838;SDS011;1427;48.510;9.060;2023-05-18T14:32:41;48.00;;;3.60;;
2838;SDS011;1427;48.510;9.060;2023-05-18T14:35:10;48.13;;;4.60;;
2838;SDS011;1427;48.510;9.060;2023-05-18T14:37:38;48.33;;;4.23;;
2838;SDS011;1427;48.510;9.060;2023-05-18T14:40:07;47.57;;;4.50;;
2838;SDS011;1427;48.510;9.060;2023-05-18T14:42:36;47.93;;;4.20;;
2838;SDS011;1427;48.510;9.060;2023-05-18T14:45:04;48.67;;;4.23;;
2838;SDS011;1427;48.510;9.060;2023-05-18T14:47:33;47.40;;;4.37;;
2838;SDS011;1427;48.510;9.060;2023-05-18T14:50:01;49.10;;;4.10;;
2838;SDS011;1427;48.510;9.060;2023-05-18T14:52:30;46.87;;;3.93;;
2838;SDS011;1427;48.510;9.060;2023-05-18T14:54:59;48.07;;;4.20;;
2838;SDS011;1427;48.510;9.060;2023-05-18T14:57:27;51.10;;;4.80;;
2838;SDS011;1427;48.510;9.060;2023-05-18T14:59:55;48.90;;;3.83;;
2838;SDS011;1427;48.510;9.060;2023-05-18T15:02:23;46.30;;;3.13;;
2838;SDS011;1427;48.510;9.060;2023-05-18T15:04:52;49.40;;;4.90;;
2838;SDS011;1427;48.510;9.060;2023-05-18T15:07:20;49.37;;;4.60;;
2838;SDS011;1427;48.510;9.060;2023-05-18T15:09:49;47.87;;;3.73;;
2838;SDS011;1427;48.510;9.060;2023-05-18T15:12:17;48.60;;;3.80;;
2838;SDS011;1427;48.510;9.060;2023-05-18T15:14:46;47.50;;;3.97;;